sensor_id;sensor_type;location;lat;lon;timestamp;temperature;humidity
13482;DHT22;6813;60.352;15.746;2022-10-30T00:02:05;7.50;99.90
13482;DHT22;6813;60.352;15.746;2022-10-30T00:04:32;7.60;99.90
13482;DHT22;6813;60.352;15.746;2022-10-30T00:06:58;7.60;99.90
13482;DHT22;6813;60.352;15.746;2022-10-30T00:09:24;7.50;99.90
13482;DHT22;6813;60.352;15.746;2022-10-30T00:11:49;7.70;99.90
13482;DHT22;6813;60.352;15.746;2022-10-30T00:14:15;7.90;99.90
13482;DHT22;6813;60.352;15.746;2022-10-30T00:16:42;7.90;99.90
13482;DHT22;6813;60.352;15.746;2022-10-30T00:19:08;7.90;99.90
13482;DHT22;6813;60.352;15.746;2022-10-30T00:21:34;7.80;99.90
13482;DHT22;6813;60.352;15.746;2022-10-30T00:23:59;7.60;99.90
13482;DHT22;6813;60.352;15.746;2022-10-30T00:26:25;7.50;99.90
13482;DHT22;6813;60.352;15.746;2022-10-30T00:28:54;7.40;99.90
13482;DHT22;6813;60.352;15.746;2022-10-30T00:31:21;7.30;99.90
13482;DHT22;6813;60.352;15.746;2022-10-30T00:33:54;7.40;99.90
13482;DHT22;6813;60.352;15.746;2022-10-30T00:36:20;7.50;99.90
13482;DHT22;6813;60.352;15.746;2022-10-30T00:38:46;7.60;99.90
13482;DHT22;6813;60.352;15.746;2022-10-30T00:41:14;7.50;99.90
13482;DHT22;6813;60.352;15.746;2022-10-30T00:43:43;7.40;99.90
13482;DHT22;6813;60.352;15.746;2022-10-30T00:46:19;7.30;99.90
13482;DHT22;6813;60.352;15.746;2022-10-30T00:48:51;7.30;99.90
13482;DHT22;6813;60.352;15.746;2022-10-30T00:51:20;7.40;99.90
13482;DHT22;6813;60.352;15.746;2022-10-30T00:53:47;7.50;99.90
13482;DHT22;6813;60.352;15.746;2022-10-30T00:56:14;7.70;99.90
13482;DHT22;6813;60.352;15.746;2022-10-30T00:58:50;7.80;99.90
13482;DHT22;6813;60.352;15.746;2022-10-30T01:01:20;7.90;99.90
13482;DHT22;6813;60.352;15.746;2022-10-30T01:03:51;7.80;99.90
13482;DHT22;6813;60.352;15.746;2022-10-30T01:06:22;7.70;99.90
13482;DHT22;6813;60.352;15.746;2022-10-30T01:08:48;7.60;99.90
13482;DHT22;6813;60.352;15.746;2022-10-30T01:11:15;7.60;99.90
13482;DHT22;6813;60.352;15.746;2022-10-30T01:13:41;7.60;99.90
13482;DHT22;6813;60.352;15.746;2022-10-30T01:16:33;7.40;99.90
13482;DHT22;6813;60.352;15.746;2022-10-30T01:27:29;7.30;99.90
13482;DHT22;6813;60.352;15.746;2022-10-30T01:30:47;7.30;99.90
13482;DHT22;6813;60.352;15.746;2022-10-30T01:33:43;7.20;99.90
13482;DHT22;6813;60.352;15.746;2022-10-30T01:36:07;7.10;99.90
13482;DHT22;6813;60.352;15.746;2022-10-30T01:38:43;7.10;99.90
13482;DHT22;6813;60.352;15.746;2022-10-30T01:41:09;7.20;99.90
13482;DHT22;6813;60.352;15.746;2022-10-30T01:43:35;7.30;99.90
13482;DHT22;6813;60.352;15.746;2022-10-30T01:54:15;6.90;99.90
13482;DHT22;6813;60.352;15.746;2022-10-30T01:57:02;6.80;99.90
13482;DHT22;6813;60.352;15.746;2022-10-30T01:59:39;6.90;99.90
13482;DHT22;6813;60.352;15.746;2022-10-30T02:02:06;7.00;99.90
13482;DHT22;6813;60.352;15.746;2022-10-30T02:04:33;6.90;99.90
13482;DHT22;6813;60.352;15.746;2022-10-30T02:07:02;7.10;99.90
13482;DHT22;6813;60.352;15.746;2022-10-30T02:09:28;7.10;99.90
13482;DHT22;6813;60.352;15.746;2022-10-30T02:11:56;7.10;99.90
13482;DHT22;6813;60.352;15.746;2022-10-30T02:14:29;7.10;99.90
13482;DHT22;6813;60.352;15.746;2022-10-30T02:16:57;7.10;99.90
13482;DHT22;6813;60.352;15.746;2022-10-30T02:19:26;7.20;99.90
13482;DHT22;6813;60.352;15.746;2022-10-30T02:21:51;7.30;99.90
13482;DHT22;6813;60.352;15.746;2022-10-30T02:24:18;7.40;99.90
13482;DHT22;6813;60.352;15.746;2022-10-30T02:26:45;7.40;99.90
13482;DHT22;6813;60.352;15.746;2022-10-30T02:29:12;7.40;99.90
13482;DHT22;6813;60.352;15.746;2022-10-30T02:31:38;7.40;99.90
13482;DHT22;6813;60.352;15.746;2022-10-30T02:34:04;7.40;99.90
13482;DHT22;6813;60.352;15.746;2022-10-30T02:36:30;7.30;99.90
13482;DHT22;6813;60.352;15.746;2022-10-30T02:38:56;7.10;99.90
13482;DHT22;6813;60.352;15.746;2022-10-30T02:41:22;7.10;99.90
13482;DHT22;6813;60.352;15.746;2022-10-30T02:43:49;7.00;99.90
13482;DHT22;6813;60.352;15.746;2022-10-30T02:46:16;6.90;99.90
13482;DHT22;6813;60.352;15.746;2022-10-30T02:48:41;6.80;99.90
13482;DHT22;6813;60.352;15.746;2022-10-30T02:51:07;6.80;99.90
13482;DHT22;6813;60.352;15.746;2022-10-30T02:53:36;6.90;99.90
13482;DHT22;6813;60.352;15.746;2022-10-30T02:56:05;7.00;99.90
13482;DHT22;6813;60.352;15.746;2022-10-30T02:58:32;7.10;99.90
13482;DHT22;6813;60.352;15.746;2022-10-30T03:01:14;7.10;99.90
13482;DHT22;6813;60.352;15.746;2022-10-30T03:03:40;7.20;99.90
13482;DHT22;6813;60.352;15.746;2022-10-30T03:06:07;7.30;99.90
13482;DHT22;6813;60.352;15.746;2022-10-30T03:08:34;7.10;99.90
13482;DHT22;6813;60.352;15.746;2022-10-30T03:11:05;7.10;99.90
13482;DHT22;6813;60.352;15.746;2022-10-30T03:13:32;6.90;99.90
13482;DHT22;6813;60.352;15.746;2022-10-30T03:16:03;6.70;99.90
13482;DHT22;6813;60.352;15.746;2022-10-30T03:18:29;6.60;99.90
13482;DHT22;6813;60.352;15.746;2022-10-30T03:21:00;6.70;99.90
13482;DHT22;6813;60.352;15.746;2022-10-30T03:23:26;6.80;99.90
13482;DHT22;6813;60.352;15.746;2022-10-30T03:25:53;6.70;99.90
13482;DHT22;6813;60.352;15.746;2022-10-30T03:28:21;6.60;99.90
13482;DHT22;6813;60.352;15.746;2022-10-30T03:30:47;6.60;99.90
13482;DHT22;6813;60.352;15.746;2022-10-30T03:33:13;6.70;99.90
13482;DHT22;6813;60.352;15.746;2022-10-30T03:35:39;6.60;99.90
13482;DHT22;6813;60.352;15.746;2022-10-30T03:38:04;6.50;99.90
13482;DHT22;6813;60.352;15.746;2022-10-30T03:40:30;6.50;99.90
13482;DHT22;6813;60.352;15.746;2022-10-30T03:42:56;6.50;99.90
13482;DHT22;6813;60.352;15.746;2022-10-30T03:45:21;6.70;99.90
13482;DHT22;6813;60.352;15.746;2022-10-30T03:47:47;6.60;99.90
13482;DHT22;6813;60.352;15.746;2022-10-30T03:50:13;6.50;99.90
13482;DHT22;6813;60.352;15.746;2022-10-30T03:52:40;6.60;99.90
13482;DHT22;6813;60.352;15.746;2022-10-30T03:55:07;6.50;99.90
13482;DHT22;6813;60.352;15.746;2022-10-30T03:57:36;6.60;99.90
13482;DHT22;6813;60.352;15.746;2022-10-30T04:00:03;6.50;99.90
13482;DHT22;6813;60.352;15.746;2022-10-30T04:02:29;6.40;99.90
13482;DHT22;6813;60.352;15.746;2022-10-30T04:04:55;6.50;99.90
13482;DHT22;6813;60.352;15.746;2022-10-30T04:07:21;6.50;99.90
13482;DHT22;6813;60.352;15.746;2022-10-30T04:09:46;6.40;99.90
13482;DHT22;6813;60.352;15.746;2022-10-30T04:12:12;6.30;99.90
13482;DHT22;6813;60.352;15.746;2022-10-30T04:14:38;6.50;99.90
13482;DHT22;6813;60.352;15.746;2022-10-30T04:17:04;6.60;99.90
13482;DHT22;6813;60.352;15.746;2022-10-30T04:19:30;6.70;99.90
13482;DHT22;6813;60.352;15.746;2022-10-30T04:21:56;6.70;99.90
13482;DHT22;6813;60.352;15.746;2022-10-30T04:24:22;6.70;99.90
13482;DHT22;6813;60.352;15.746;2022-10-30T04:26:48;6.60;99.90
13482;DHT22;6813;60.352;15.746;2022-10-30T04:29:16;6.60;99.90
13482;DHT22;6813;60.352;15.746;2022-10-30T04:31:42;6.60;99.90
13482;DHT22;6813;60.352;15.746;2022-10-30T04:34:07;6.60;99.90
13482;DHT22;6813;60.352;15.746;2022-10-30T04:36:33;6.70;99.90
13482;DHT22;6813;60.352;15.746;2022-10-30T04:38:59;6.70;99.90
13482;DHT22;6813;60.352;15.746;2022-10-30T04:41:26;6.70;99.90
13482;DHT22;6813;60.352;15.746;2022-10-30T04:43:52;6.60;99.90
13482;DHT22;6813;60.352;15.746;2022-10-30T04:46:18;6.60;99.90
13482;DHT22;6813;60.352;15.746;2022-10-30T04:48:44;6.60;99.90
13482;DHT22;6813;60.352;15.746;2022-10-30T04:51:10;6.60;99.90
13482;DHT22;6813;60.352;15.746;2022-10-30T04:53:39;6.50;99.90
13482;DHT22;6813;60.352;15.746;2022-10-30T04:56:05;6.40;99.90
13482;DHT22;6813;60.352;15.746;2022-10-30T04:58:31;6.40;99.90
13482;DHT22;6813;60.352;15.746;2022-10-30T05:01:04;6.40;99.90
13482;DHT22;6813;60.352;15.746;2022-10-30T05:03:30;6.40;99.90
13482;DHT22;6813;60.352;15.746;2022-10-30T05:06:05;6.40;99.90
13482;DHT22;6813;60.352;15.746;2022-10-30T05:08:31;6.50;99.90
13482;DHT22;6813;60.352;15.746;2022-10-30T05:11:03;6.50;99.90
13482;DHT22;6813;60.352;15.746;2022-10-30T05:13:29;6.50;99.90
13482;DHT22;6813;60.352;15.746;2022-10-30T05:15:57;6.60;99.90
13482;DHT22;6813;60.352;15.746;2022-10-30T05:18:22;6.70;99.90
13482;DHT22;6813;60.352;15.746;2022-10-30T05:20:48;6.80;99.90
13482;DHT22;6813;60.352;15.746;2022-10-30T05:23:14;6.80;99.90
13482;DHT22;6813;60.352;15.746;2022-10-30T05:25:40;6.90;99.90
13482;DHT22;6813;60.352;15.746;2022-10-30T05:28:06;7.10;99.90
13482;DHT22;6813;60.352;15.746;2022-10-30T05:30:34;7.10;99.90
13482;DHT22;6813;60.352;15.746;2022-10-30T05:33:05;7.00;99.90
13482;DHT22;6813;60.352;15.746;2022-10-30T05:35:32;6.90;99.90
13482;DHT22;6813;60.352;15.746;2022-10-30T05:37:58;6.60;99.90
13482;DHT22;6813;60.352;15.746;2022-10-30T05:40:25;6.40;99.90
13482;DHT22;6813;60.352;15.746;2022-10-30T05:42:51;6.10;99.90
13482;DHT22;6813;60.352;15.746;2022-10-30T05:45:17;6.00;99.90
13482;DHT22;6813;60.352;15.746;2022-10-30T05:47:43;6.10;99.90
13482;DHT22;6813;60.352;15.746;2022-10-30T05:50:11;6.00;99.90
13482;DHT22;6813;60.352;15.746;2022-10-30T05:52:37;6.10;99.90
13482;DHT22;6813;60.352;15.746;2022-10-30T05:55:03;6.20;99.90
13482;DHT22;6813;60.352;15.746;2022-10-30T05:57:29;6.40;99.90
13482;DHT22;6813;60.352;15.746;2022-10-30T05:59:57;6.30;99.90
13482;DHT22;6813;60.352;15.746;2022-10-30T06:02:23;6.30;99.90
13482;DHT22;6813;60.352;15.746;2022-10-30T06:04:49;6.40;99.90
13482;DHT22;6813;60.352;15.746;2022-10-30T06:07:14;6.30;99.90
13482;DHT22;6813;60.352;15.746;2022-10-30T06:09:40;6.30;99.90
13482;DHT22;6813;60.352;15.746;2022-10-30T06:12:06;6.30;99.90
13482;DHT22;6813;60.352;15.746;2022-10-30T06:14:31;6.30;99.90
13482;DHT22;6813;60.352;15.746;2022-10-30T06:16:57;6.40;99.90
13482;DHT22;6813;60.352;15.746;2022-10-30T06:19:24;6.40;99.90
13482;DHT22;6813;60.352;15.746;2022-10-30T06:21:50;6.40;99.90
13482;DHT22;6813;60.352;15.746;2022-10-30T06:24:15;6.40;99.90
13482;DHT22;6813;60.352;15.746;2022-10-30T06:26:44;6.30;99.90
13482;DHT22;6813;60.352;15.746;2022-10-30T06:29:10;6.40;99.90
13482;DHT22;6813;60.352;15.746;2022-10-30T06:31:36;6.40;99.90
13482;DHT22;6813;60.352;15.746;2022-10-30T06:34:02;6.50;99.90
13482;DHT22;6813;60.352;15.746;2022-10-30T06:36:29;6.60;99.90
13482;DHT22;6813;60.352;15.746;2022-10-30T06:38:55;6.70;99.90
13482;DHT22;6813;60.352;15.746;2022-10-30T06:41:21;6.70;99.90
13482;DHT22;6813;60.352;15.746;2022-10-30T06:43:47;6.80;99.90
13482;DHT22;6813;60.352;15.746;2022-10-30T06:46:13;6.90;99.90
13482;DHT22;6813;60.352;15.746;2022-10-30T06:48:38;7.00;99.90
13482;DHT22;6813;60.352;15.746;2022-10-30T06:51:06;7.00;99.90
13482;DHT22;6813;60.352;15.746;2022-10-30T06:53:33;7.10;99.90
13482;DHT22;6813;60.352;15.746;2022-10-30T06:56:02;7.20;99.90
13482;DHT22;6813;60.352;15.746;2022-10-30T06:58:28;7.40;99.90
13482;DHT22;6813;60.352;15.746;2022-10-30T07:00:55;7.60;99.90
13482;DHT22;6813;60.352;15.746;2022-10-30T07:03:24;7.80;99.90
13482;DHT22;6813;60.352;15.746;2022-10-30T07:05:56;8.00;99.90
13482;DHT22;6813;60.352;15.746;2022-10-30T07:08:22;8.10;99.90
13482;DHT22;6813;60.352;15.746;2022-10-30T07:10:49;8.30;99.90
13482;DHT22;6813;60.352;15.746;2022-10-30T07:13:15;8.60;99.90
13482;DHT22;6813;60.352;15.746;2022-10-30T07:15:41;8.90;99.90
13482;DHT22;6813;60.352;15.746;2022-10-30T07:18:08;9.20;99.90
13482;DHT22;6813;60.352;15.746;2022-10-30T07:20:34;9.50;99.90
13482;DHT22;6813;60.352;15.746;2022-10-30T07:23:01;9.80;99.90
13482;DHT22;6813;60.352;15.746;2022-10-30T07:25:27;10.00;99.90
13482;DHT22;6813;60.352;15.746;2022-10-30T07:27:54;10.30;99.90
13482;DHT22;6813;60.352;15.746;2022-10-30T07:30:23;10.50;99.90
13482;DHT22;6813;60.352;15.746;2022-10-30T07:32:59;10.80;99.90
13482;DHT22;6813;60.352;15.746;2022-10-30T07:35:25;10.90;99.90
13482;DHT22;6813;60.352;15.746;2022-10-30T07:37:51;10.90;99.90
13482;DHT22;6813;60.352;15.746;2022-10-30T07:40:18;11.00;99.90
13482;DHT22;6813;60.352;15.746;2022-10-30T07:42:43;10.90;99.90
13482;DHT22;6813;60.352;15.746;2022-10-30T07:45:09;11.00;99.90
13482;DHT22;6813;60.352;15.746;2022-10-30T07:47:42;11.20;99.90
13482;DHT22;6813;60.352;15.746;2022-10-30T07:50:09;11.30;99.90
13482;DHT22;6813;60.352;15.746;2022-10-30T07:52:35;11.40;99.90
13482;DHT22;6813;60.352;15.746;2022-10-30T07:55:02;11.30;99.90
13482;DHT22;6813;60.352;15.746;2022-10-30T07:57:33;11.40;99.90
13482;DHT22;6813;60.352;15.746;2022-10-30T07:59:59;11.50;99.90
13482;DHT22;6813;60.352;15.746;2022-10-30T08:02:24;11.90;99.90
13482;DHT22;6813;60.352;15.746;2022-10-30T08:04:50;12.20;99.50
13482;DHT22;6813;60.352;15.746;2022-10-30T08:07:16;12.50;99.40
13482;DHT22;6813;60.352;15.746;2022-10-30T08:09:42;12.70;98.60
13482;DHT22;6813;60.352;15.746;2022-10-30T08:12:08;12.60;98.90
13482;DHT22;6813;60.352;15.746;2022-10-30T08:14:33;12.70;99.40
13482;DHT22;6813;60.352;15.746;2022-10-30T08:16:59;12.80;99.40
13482;DHT22;6813;60.352;15.746;2022-10-30T08:19:25;12.80;99.20
13482;DHT22;6813;60.352;15.746;2022-10-30T08:21:50;13.00;99.70
13482;DHT22;6813;60.352;15.746;2022-10-30T08:24:16;12.90;99.40
13482;DHT22;6813;60.352;15.746;2022-10-30T08:26:42;13.10;99.40
13482;DHT22;6813;60.352;15.746;2022-10-30T08:29:08;13.00;98.90
13482;DHT22;6813;60.352;15.746;2022-10-30T08:31:34;13.10;99.20
13482;DHT22;6813;60.352;15.746;2022-10-30T08:34:00;13.10;98.90
13482;DHT22;6813;60.352;15.746;2022-10-30T08:36:26;13.30;99.50
13482;DHT22;6813;60.352;15.746;2022-10-30T08:38:55;13.30;99.10
13482;DHT22;6813;60.352;15.746;2022-10-30T08:41:22;13.40;99.10
13482;DHT22;6813;60.352;15.746;2022-10-30T08:47:18;13.60;99.40
13482;DHT22;6813;60.352;15.746;2022-10-30T08:49:44;13.10;99.20
13482;DHT22;6813;60.352;15.746;2022-10-30T08:52:09;13.00;99.90
13482;DHT22;6813;60.352;15.746;2022-10-30T08:54:35;13.00;99.50
13482;DHT22;6813;60.352;15.746;2022-10-30T08:57:01;13.10;99.80
13482;DHT22;6813;60.352;15.746;2022-10-30T08:59:27;13.40;98.90
13482;DHT22;6813;60.352;15.746;2022-10-30T09:01:53;13.30;99.10
13482;DHT22;6813;60.352;15.746;2022-10-30T09:04:19;13.40;99.20
13482;DHT22;6813;60.352;15.746;2022-10-30T09:06:45;13.50;99.00
13482;DHT22;6813;60.352;15.746;2022-10-30T09:09:11;13.50;98.60
13482;DHT22;6813;60.352;15.746;2022-10-30T09:11:38;13.50;99.50
13482;DHT22;6813;60.352;15.746;2022-10-30T09:14:04;13.60;99.60
13482;DHT22;6813;60.352;15.746;2022-10-30T09:16:30;13.50;98.60
13482;DHT22;6813;60.352;15.746;2022-10-30T09:18:55;13.50;99.10
13482;DHT22;6813;60.352;15.746;2022-10-30T09:21:21;13.70;99.70
13482;DHT22;6813;60.352;15.746;2022-10-30T09:23:47;13.80;99.70
13482;DHT22;6813;60.352;15.746;2022-10-30T09:26:13;13.90;98.50
13482;DHT22;6813;60.352;15.746;2022-10-30T09:28:39;13.80;97.40
13482;DHT22;6813;60.352;15.746;2022-10-30T09:31:05;13.70;99.20
13482;DHT22;6813;60.352;15.746;2022-10-30T09:33:31;13.90;98.70
13482;DHT22;6813;60.352;15.746;2022-10-30T09:35:57;13.90;98.00
13482;DHT22;6813;60.352;15.746;2022-10-30T09:38:23;13.90;97.70
13482;DHT22;6813;60.352;15.746;2022-10-30T09:43:58;14.40;97.40
13482;DHT22;6813;60.352;15.746;2022-10-30T09:46:36;14.40;97.40
13482;DHT22;6813;60.352;15.746;2022-10-30T09:54:38;14.60;96.90
13482;DHT22;6813;60.352;15.746;2022-10-30T10:00:12;14.50;97.00
13482;DHT22;6813;60.352;15.746;2022-10-30T10:07:57;14.50;97.00
13482;DHT22;6813;60.352;15.746;2022-10-30T10:10:45;14.30;96.10
13482;DHT22;6813;60.352;15.746;2022-10-30T10:13:34;14.30;96.90
13482;DHT22;6813;60.352;15.746;2022-10-30T10:16:24;14.40;96.40
13482;DHT22;6813;60.352;15.746;2022-10-30T10:18:59;14.40;95.80
13482;DHT22;6813;60.352;15.746;2022-10-30T10:24:37;14.20;96.30
13482;DHT22;6813;60.352;15.746;2022-10-30T10:30:16;14.30;96.80
13482;DHT22;6813;60.352;15.746;2022-10-30T10:35:52;14.10;99.90
13482;DHT22;6813;60.352;15.746;2022-10-30T10:38:32;14.10;95.80
13482;DHT22;6813;60.352;15.746;2022-10-30T10:41:10;13.80;96.70
13482;DHT22;6813;60.352;15.746;2022-10-30T10:51:21;14.70;93.80
13482;DHT22;6813;60.352;15.746;2022-10-30T10:54:02;14.80;93.40
13482;DHT22;6813;60.352;15.746;2022-10-30T10:56:33;14.80;92.90
13482;DHT22;6813;60.352;15.746;2022-10-30T10:59:04;14.90;92.60
13482;DHT22;6813;60.352;15.746;2022-10-30T11:01:43;14.80;92.30
13482;DHT22;6813;60.352;15.746;2022-10-30T11:04:18;14.90;92.70
13482;DHT22;6813;60.352;15.746;2022-10-30T11:06:49;15.00;92.00
13482;DHT22;6813;60.352;15.746;2022-10-30T11:09:20;14.90;90.70
13482;DHT22;6813;60.352;15.746;2022-10-30T11:11:52;14.70;91.50
13482;DHT22;6813;60.352;15.746;2022-10-30T11:14:23;14.70;91.80
13482;DHT22;6813;60.352;15.746;2022-10-30T11:19:19;14.70;91.30
13482;DHT22;6813;60.352;15.746;2022-10-30T11:21:49;14.60;91.30
13482;DHT22;6813;60.352;15.746;2022-10-30T11:24:27;14.50;91.20
13482;DHT22;6813;60.352;15.746;2022-10-30T11:26:56;14.40;91.40
13482;DHT22;6813;60.352;15.746;2022-10-30T11:29:24;14.30;91.90
13482;DHT22;6813;60.352;15.746;2022-10-30T11:32:04;14.20;92.00
13482;DHT22;6813;60.352;15.746;2022-10-30T11:34:37;14.10;91.50
13482;DHT22;6813;60.352;15.746;2022-10-30T11:37:04;14.10;91.20
13482;DHT22;6813;60.352;15.746;2022-10-30T11:39:33;14.00;91.20
13482;DHT22;6813;60.352;15.746;2022-10-30T11:47:04;12.60;91.40
13482;DHT22;6813;60.352;15.746;2022-10-30T11:49:53;12.30;92.70
13482;DHT22;6813;60.352;15.746;2022-10-30T11:52:23;12.40;93.10
13482;DHT22;6813;60.352;15.746;2022-10-30T11:55:09;12.20;92.80
13482;DHT22;6813;60.352;15.746;2022-10-30T11:57:45;12.00;92.80
13482;DHT22;6813;60.352;15.746;2022-10-30T12:00:35;12.10;93.80
13482;DHT22;6813;60.352;15.746;2022-10-30T12:03:27;12.10;92.80
13482;DHT22;6813;60.352;15.746;2022-10-30T12:06:19;12.30;93.40
13482;DHT22;6813;60.352;15.746;2022-10-30T12:11:41;12.30;92.40
13482;DHT22;6813;60.352;15.746;2022-10-30T12:14:28;12.40;92.90
13482;DHT22;6813;60.352;15.746;2022-10-30T12:17:01;12.40;94.30
13482;DHT22;6813;60.352;15.746;2022-10-30T12:19:29;12.60;95.00
13482;DHT22;6813;60.352;15.746;2022-10-30T12:21:57;12.60;94.70
13482;DHT22;6813;60.352;15.746;2022-10-30T12:24:39;12.80;95.50
13482;DHT22;6813;60.352;15.746;2022-10-30T12:27:12;12.40;93.20
13482;DHT22;6813;60.352;15.746;2022-10-30T12:30:13;12.50;96.40
13482;DHT22;6813;60.352;15.746;2022-10-30T12:32:59;11.80;92.30
13482;DHT22;6813;60.352;15.746;2022-10-30T12:35:36;11.10;93.40
13482;DHT22;6813;60.352;15.746;2022-10-30T12:38:12;11.10;94.40
13482;DHT22;6813;60.352;15.746;2022-10-30T12:41:38;11.30;95.50
13482;DHT22;6813;60.352;15.746;2022-10-30T12:43:57;11.60;96.40
13482;DHT22;6813;60.352;15.746;2022-10-30T12:47:20;11.90;96.20
13482;DHT22;6813;60.352;15.746;2022-10-30T12:50:18;12.00;95.60
13482;DHT22;6813;60.352;15.746;2022-10-30T12:53:07;12.00;94.00
13482;DHT22;6813;60.352;15.746;2022-10-30T12:55:50;11.80;94.00
13482;DHT22;6813;60.352;15.746;2022-10-30T13:01:24;11.80;95.70
13482;DHT22;6813;60.352;15.746;2022-10-30T13:06:38;12.10;95.70
13482;DHT22;6813;60.352;15.746;2022-10-30T13:12:29;12.20;94.70
13482;DHT22;6813;60.352;15.746;2022-10-30T13:15:00;12.20;96.20
13482;DHT22;6813;60.352;15.746;2022-10-30T13:17:28;12.30;95.70
13482;DHT22;6813;60.352;15.746;2022-10-30T13:19:54;12.20;94.00
13482;DHT22;6813;60.352;15.746;2022-10-30T13:22:46;12.00;93.60
13482;DHT22;6813;60.352;15.746;2022-10-30T13:25:28;11.50;93.20
13482;DHT22;6813;60.352;15.746;2022-10-30T13:36:40;11.20;95.80
13482;DHT22;6813;60.352;15.746;2022-10-30T13:39:25;11.20;95.10
13482;DHT22;6813;60.352;15.746;2022-10-30T13:42:35;10.90;95.60
13482;DHT22;6813;60.352;15.746;2022-10-30T13:51:10;10.70;97.10
13482;DHT22;6813;60.352;15.746;2022-10-30T13:53:33;10.60;97.60
13482;DHT22;6813;60.352;15.746;2022-10-30T13:55:59;10.90;97.90
13482;DHT22;6813;60.352;15.746;2022-10-30T13:58:42;11.00;98.30
13482;DHT22;6813;60.352;15.746;2022-10-30T14:01:27;11.20;98.40
13482;DHT22;6813;60.352;15.746;2022-10-30T14:04:06;11.40;98.50
13482;DHT22;6813;60.352;15.746;2022-10-30T14:11:54;11.70;98.70
13482;DHT22;6813;60.352;15.746;2022-10-30T14:14:29;11.80;99.90
13482;DHT22;6813;60.352;15.746;2022-10-30T14:17:15;12.10;99.90
13482;DHT22;6813;60.352;15.746;2022-10-30T14:22:29;12.00;96.80
13482;DHT22;6813;60.352;15.746;2022-10-30T14:24:56;11.90;94.60
13482;DHT22;6813;60.352;15.746;2022-10-30T14:27:30;11.60;94.40
13482;DHT22;6813;60.352;15.746;2022-10-30T14:29:58;11.30;94.40
13482;DHT22;6813;60.352;15.746;2022-10-30T14:39:50;11.40;95.20
13482;DHT22;6813;60.352;15.746;2022-10-30T14:45:00;11.40;96.00
13482;DHT22;6813;60.352;15.746;2022-10-30T14:58:40;11.00;98.30
13482;DHT22;6813;60.352;15.746;2022-10-30T15:01:19;10.90;98.80
13482;DHT22;6813;60.352;15.746;2022-10-30T15:15:02;10.90;99.60
13482;DHT22;6813;60.352;15.746;2022-10-30T15:17:40;10.80;99.50
13482;DHT22;6813;60.352;15.746;2022-10-30T15:20:22;10.70;99.80
13482;DHT22;6813;60.352;15.746;2022-10-30T15:23:11;10.70;99.90
13482;DHT22;6813;60.352;15.746;2022-10-30T15:26:03;10.60;99.90
13482;DHT22;6813;60.352;15.746;2022-10-30T15:28:35;10.50;99.90
13482;DHT22;6813;60.352;15.746;2022-10-30T15:31:19;10.50;99.90
13482;DHT22;6813;60.352;15.746;2022-10-30T15:33:45;10.50;99.90
13482;DHT22;6813;60.352;15.746;2022-10-30T15:39:08;10.30;99.90
13482;DHT22;6813;60.352;15.746;2022-10-30T15:41:55;10.20;99.90
13482;DHT22;6813;60.352;15.746;2022-10-30T15:44:27;10.00;99.90
13482;DHT22;6813;60.352;15.746;2022-10-30T15:46:55;9.80;99.90
13482;DHT22;6813;60.352;15.746;2022-10-30T15:54:46;9.50;99.90
13482;DHT22;6813;60.352;15.746;2022-10-30T15:57:33;9.40;99.90
13482;DHT22;6813;60.352;15.746;2022-10-30T16:00:07;9.40;99.90
13482;DHT22;6813;60.352;15.746;2022-10-30T16:02:46;9.30;99.90
13482;DHT22;6813;60.352;15.746;2022-10-30T16:05:23;9.10;99.90
13482;DHT22;6813;60.352;15.746;2022-10-30T16:07:50;9.00;99.90
13482;DHT22;6813;60.352;15.746;2022-10-30T16:10:19;8.90;99.90
13482;DHT22;6813;60.352;15.746;2022-10-30T16:12:45;8.80;99.90
13482;DHT22;6813;60.352;15.746;2022-10-30T16:15:34;8.80;99.90
13482;DHT22;6813;60.352;15.746;2022-10-30T16:20:33;8.90;99.90
13482;DHT22;6813;60.352;15.746;2022-10-30T16:23:00;9.00;99.90
13482;DHT22;6813;60.352;15.746;2022-10-30T16:25:27;9.00;99.90
13482;DHT22;6813;60.352;15.746;2022-10-30T16:27:53;9.10;99.90
13482;DHT22;6813;60.352;15.746;2022-10-30T16:30:19;9.20;99.90
13482;DHT22;6813;60.352;15.746;2022-10-30T16:32:50;9.20;99.90
13482;DHT22;6813;60.352;15.746;2022-10-30T16:35:21;9.30;99.90
13482;DHT22;6813;60.352;15.746;2022-10-30T16:37:47;9.20;99.90
13482;DHT22;6813;60.352;15.746;2022-10-30T16:42:55;9.10;99.90
13482;DHT22;6813;60.352;15.746;2022-10-30T16:48:27;8.90;99.90
13482;DHT22;6813;60.352;15.746;2022-10-30T16:50:46;9.00;99.90
13482;DHT22;6813;60.352;15.746;2022-10-30T16:53:18;9.00;99.90
13482;DHT22;6813;60.352;15.746;2022-10-30T16:55:45;8.90;99.90
13482;DHT22;6813;60.352;15.746;2022-10-30T16:58:12;8.90;99.90
13482;DHT22;6813;60.352;15.746;2022-10-30T17:00:54;8.90;99.90
13482;DHT22;6813;60.352;15.746;2022-10-30T17:03:26;8.80;99.90
13482;DHT22;6813;60.352;15.746;2022-10-30T17:06:04;8.80;99.90
13482;DHT22;6813;60.352;15.746;2022-10-30T17:08:40;8.80;99.90
13482;DHT22;6813;60.352;15.746;2022-10-30T17:11:15;8.80;99.90
13482;DHT22;6813;60.352;15.746;2022-10-30T17:16:33;8.90;99.90
13482;DHT22;6813;60.352;15.746;2022-10-30T17:21:59;8.90;99.90
13482;DHT22;6813;60.352;15.746;2022-10-30T17:24:32;8.80;99.90
13482;DHT22;6813;60.352;15.746;2022-10-30T17:27:00;8.70;99.90
13482;DHT22;6813;60.352;15.746;2022-10-30T17:34:45;8.80;99.90
13482;DHT22;6813;60.352;15.746;2022-10-30T17:37:11;8.80;99.90
13482;DHT22;6813;60.352;15.746;2022-10-30T17:39:37;8.80;99.90
13482;DHT22;6813;60.352;15.746;2022-10-30T17:42:03;8.80;99.90
13482;DHT22;6813;60.352;15.746;2022-10-30T17:44:31;8.70;99.90
13482;DHT22;6813;60.352;15.746;2022-10-30T17:46:59;8.60;99.90
13482;DHT22;6813;60.352;15.746;2022-10-30T17:49:30;8.60;99.90
13482;DHT22;6813;60.352;15.746;2022-10-30T17:51:57;8.70;99.90
13482;DHT22;6813;60.352;15.746;2022-10-30T17:54:23;8.80;99.90
13482;DHT22;6813;60.352;15.746;2022-10-30T17:56:49;8.90;99.90
13482;DHT22;6813;60.352;15.746;2022-10-30T17:59:16;8.90;99.90
13482;DHT22;6813;60.352;15.746;2022-10-30T18:01:42;9.00;99.90
13482;DHT22;6813;60.352;15.746;2022-10-30T18:04:14;9.00;99.90
13482;DHT22;6813;60.352;15.746;2022-10-30T18:06:41;8.90;99.90
13482;DHT22;6813;60.352;15.746;2022-10-30T18:09:07;8.90;99.90
13482;DHT22;6813;60.352;15.746;2022-10-30T18:11:33;8.90;99.90
13482;DHT22;6813;60.352;15.746;2022-10-30T18:13:59;9.00;99.90
13482;DHT22;6813;60.352;15.746;2022-10-30T18:16:25;9.00;99.90
13482;DHT22;6813;60.352;15.746;2022-10-30T18:18:51;9.10;99.90
13482;DHT22;6813;60.352;15.746;2022-10-30T18:21:20;9.00;99.90
13482;DHT22;6813;60.352;15.746;2022-10-30T18:23:46;9.00;99.90
13482;DHT22;6813;60.352;15.746;2022-10-30T18:26:17;8.90;99.90
13482;DHT22;6813;60.352;15.746;2022-10-30T18:28:45;8.90;99.90
13482;DHT22;6813;60.352;15.746;2022-10-30T18:31:12;8.90;99.90
13482;DHT22;6813;60.352;15.746;2022-10-30T18:33:39;9.00;99.90
13482;DHT22;6813;60.352;15.746;2022-10-30T18:36:19;9.00;99.90